.
WxDataArchive / Data Records for 2006-02-23
2006-02-22 February 2006 2006-02-24

Data Records for Thursday, 23 February 2006

Time	Temp	Chill	HIndex	Humid	Dewpt	 Wind 	HiWind	WindDir	Rain 	Barom 
-----	----	-----	------	-----	-----	------	------	-------	-----	----- 
00:00	36.5	36.5	36.5	81	31.2	2	5	248	0.00	29.856 
00:05	36.3	36.3	36.3	81	31.0	2	4	248	0.00	29.856 
00:10	36.0	36.0	36.0	81	30.7	1	3	248	0.00	29.856 
00:15	35.9	35.9	35.9	82	31.0	1	3	248	0.00	29.856 
00:20	35.8	35.8	35.8	82	30.9	1	2	248	0.00	29.856 
00:25	35.6	35.6	35.6	82	30.7	0	1	248	0.00	29.856 
00:30	35.3	35.3	35.3	82	30.4	0	1	248	0.00	29.858 
00:35	35.0	35.0	35.0	82	30.1	0	1	248	0.00	29.858 
00:40	34.9	34.9	34.9	82	30.0	1	3	248	0.00	29.858 
00:45	34.7	34.7	34.7	81	29.5	1	4	248	0.00	29.865 
00:50	34.9	34.9	34.9	80	29.4	1	3	248	0.00	29.865 
00:55	34.9	34.9	34.9	79	29.1	1	2	248	0.00	29.865 
01:00	34.9	34.9	34.9	78	28.7	1	3	248	0.00	29.874 
01:05	34.9	34.9	34.9	78	28.7	1	3	248	0.00	29.874 
01:10	34.9	34.9	34.9	77	28.4	1	2	248	0.00	29.874 
01:15	34.7	34.7	34.7	76	27.9	1	3	248	0.00	29.873 
01:20	34.7	34.7	34.7	75	27.6	1	3	248	0.00	29.873 
01:25	34.6	34.6	34.6	74	27.2	1	4	248	0.00	29.873 
01:30	34.3	34.3	34.3	74	26.9	0	2	248	0.00	29.880 
01:35	34.1	34.1	34.1	74	26.7	0	2	292	0.00	29.880 
01:40	33.8	33.8	33.8	74	26.4	0	2	270	0.00	29.880 
01:45	33.5	33.5	33.5	74	26.1	0	2	270	0.00	29.887 
01:50	33.4	33.4	33.4	73	25.7	0	1	270	0.00	29.887 
01:55	33.1	33.1	33.1	74	25.7	0	3	225	0.00	29.887 
02:00	32.8	32.8	32.8	74	25.4	0	1	225	0.00	29.892 
02:05	32.5	32.5	32.5	74	25.2	0	1	225	0.00	29.892 
02:10	32.2	32.2	32.2	75	25.2	0	1	225	0.00	29.892 
02:15	31.9	31.9	31.9	75	24.9	0	1	225	0.00	29.899 
02:20	31.8	31.8	31.8	75	24.8	0	1	225	0.00	29.899 
02:25	31.6	31.6	31.6	75	24.6	0	1	225	0.00	29.899 
02:30	31.3	31.3	31.3	74	24.0	0	1	225	0.00	29.904 
02:35	31.0	31.0	31.0	74	23.7	0	1	225	0.00	29.904 
02:40	30.7	30.7	30.7	75	23.7	0	1	225	0.00	29.904 
02:45	30.6	30.6	30.6	75	23.6	0	1	225	0.00	29.906 
02:50	30.3	30.3	30.3	75	23.3	0	2	225	0.00	29.906 
02:55	30.1	30.1	30.1	75	23.2	0	2	225	0.00	29.906 
03:00	30.0	30.0	30.0	75	23.1	1	2	225	0.00	29.907 
03:05	30.0	30.0	30.0	76	23.4	0	2	225	0.00	29.907 
03:10	30.0	30.0	30.0	75	23.1	0	2	225	0.00	29.907 
03:15	29.7	29.7	29.7	75	22.8	0	1	225	0.00	29.904 
03:20	29.5	29.5	29.5	75	22.6	0	1	225	0.00	29.904 
03:25	29.5	29.5	29.5	75	22.6	0	1	225	0.00	29.904 
03:30	29.4	29.4	29.4	75	22.5	0	1	225	0.00	29.903 
03:35	29.4	29.4	29.4	75	22.5	0	2	225	0.00	29.903 
03:40	29.4	29.4	29.4	74	22.2	0	2	225	0.00	29.903 
03:45	29.4	29.4	29.4	74	22.2	0	2	225	0.00	29.902 
03:50	29.5	29.5	29.5	74	22.3	0	1	225	0.00	29.902 
03:55	29.4	29.4	29.4	74	22.2	0	1	225	0.00	29.902 
04:00	29.3	29.3	29.3	74	22.1	0	1	225	0.00	29.903 
04:05	29.1	29.1	29.1	74	21.9	0	1	225	0.00	29.903 
04:10	29.0	29.0	29.0	74	21.8	0	2	225	0.00	29.903 
04:15	29.0	29.0	29.0	74	21.8	0	1	225	0.00	29.908 
04:20	28.8	28.8	28.8	74	21.6	0	1	225	0.00	29.908 
04:25	28.8	28.8	28.8	74	21.6	0	1	225	0.00	29.908 
04:30	28.8	28.8	28.8	74	21.6	0	1	225	0.00	29.909 
04:35	28.8	28.8	28.8	74	21.6	0	2	225	0.00	29.909 
04:40	28.8	28.8	28.8	74	21.6	0	2	225	0.00	29.909 
04:45	28.8	28.8	28.8	74	21.6	0	2	225	0.00	29.908 
04:50	29.0	29.0	29.0	73	21.4	0	1	225	0.00	29.908 
04:55	29.0	29.0	29.0	73	21.4	0	1	225	0.00	29.908 
05:00	29.0	29.0	29.0	74	21.8	1	2	225	0.00	29.911 
05:05	29.1	29.1	29.1	73	21.5	1	3	248	0.00	29.911 
05:10	29.3	29.3	29.3	73	21.7	1	3	248	0.00	29.911 
05:15	29.4	29.4	29.4	73	21.8	1	4	248	0.00	29.920 
05:20	29.5	29.5	29.5	73	21.9	1	3	248	0.00	29.920 
05:25	29.4	29.4	29.4	73	21.8	1	2	248	0.00	29.920 
05:30	29.4	29.4	29.4	73	21.8	1	2	248	0.00	29.921 
05:35	29.5	29.5	29.5	73	21.9	1	2	270	0.00	29.921 
05:40	29.5	29.5	29.5	72	21.6	1	3	248	0.00	29.921 
05:45	29.5	29.5	29.5	72	21.6	1	2	248	0.00	29.926 
05:50	29.4	29.4	29.4	72	21.5	0	2	248	0.00	29.926 
05:55	29.3	29.3	29.3	73	21.7	0	1	248	0.00	29.926 
06:00	29.0	29.0	29.0	73	21.4	0	1	248	0.00	29.927 
06:05	28.7	28.7	28.7	74	21.5	0	0	---	0.00	29.927 
06:10	28.4	28.4	28.4	74	21.2	0	1	248	0.00	29.927 
06:15	28.1	28.1	28.1	75	21.2	0	1	248	0.00	29.932 
06:20	27.9	27.9	27.9	76	21.3	0	1	248	0.00	29.932 
06:25	27.8	27.8	27.8	76	21.2	0	1	248	0.00	29.932 
06:30	27.5	27.5	27.5	76	20.9	0	0	---	0.00	29.933 
06:35	27.0	27.0	27.0	77	20.8	0	0	---	0.00	29.933 
06:40	26.7	26.7	26.7	78	20.8	0	0	---	0.00	29.933 
06:45	26.4	26.4	26.4	79	20.8	0	1	248	0.00	29.936 
06:50	26.3	26.3	26.3	80	21.0	0	1	248	0.00	29.936 
06:55	26.4	26.4	26.4	81	21.4	0	1	248	0.00	29.936 
07:00	26.9	26.9	26.9	80	21.6	0	1	248	0.00	29.934 
07:05	27.2	27.2	27.2	80	21.9	0	2	248	0.00	29.934 
07:10	27.5	27.5	27.5	78	21.6	0	1	248	0.00	29.934 
07:15	27.5	27.5	27.5	78	21.6	0	1	248	0.00	29.935 
07:20	27.3	27.3	27.3	78	21.4	0	1	248	0.00	29.935 
07:25	27.3	27.3	27.3	78	21.4	0	1	248	0.00	29.935 
07:30	27.3	27.3	27.3	79	21.7	0	2	248	0.00	29.936 
07:35	27.5	27.5	27.5	78	21.6	0	1	248	0.00	29.936 
07:40	27.6	27.6	27.6	78	21.7	0	2	248	0.00	29.936 
07:45	27.8	27.8	27.8	77	21.5	0	1	248	0.00	29.939 
07:50	28.1	28.1	28.1	77	21.8	1	2	248	0.00	29.939 
07:55	28.4	28.4	28.4	76	21.8	1	3	248	0.00	29.939 
08:00	28.8	28.8	28.8	75	21.9	1	3	248	0.00	29.947 
08:05	29.3	29.3	29.3	74	22.1	2	5	248	0.00	29.947 
08:10	29.8	29.8	29.8	73	22.2	2	5	248	0.00	29.947 
08:15	30.3	30.3	30.3	72	22.4	2	5	248	0.00	29.951 
08:20	30.7	30.7	30.7	71	22.4	2	5	248	0.00	29.951 
08:25	31.2	31.2	31.2	70	22.6	2	4	248	0.00	29.951 
08:30	31.6	31.6	31.6	69	22.6	2	4	248	0.00	29.954 
08:35	32.1	32.1	32.1	68	22.7	2	5	248	0.00	29.954 
08:40	32.5	32.5	32.5	68	23.1	2	5	248	0.00	29.954 
08:45	33.1	33.1	33.1	67	23.4	2	4	248	0.00	29.957 
08:50	33.5	33.5	33.5	65	23.0	2	3	248	0.00	29.957 
08:55	34.3	34.3	34.3	64	23.4	3	9	248	0.00	29.957 
09:00	34.7	34.7	34.7	63	23.4	3	6	248	0.00	29.957 
09:05	35.2	31.8	35.2	62	23.5	4	7	248	0.00	29.957 
09:10	35.8	35.8	35.8	61	23.7	3	5	248	0.00	29.957 
09:15	36.2	36.2	36.2	60	23.7	2	6	248	0.00	29.948 
09:20	36.6	36.6	36.6	60	24.0	3	9	248	0.00	29.948 
09:25	37.2	37.2	37.2	58	23.8	3	7	248	0.00	29.948 
09:30	37.6	37.6	37.6	57	23.8	3	9	248	0.00	29.947 
09:35	38.2	38.2	38.2	58	24.7	3	6	248	0.00	29.947 
09:40	38.8	35.9	38.8	56	24.5	4	9	248	0.00	29.947 
09:45	39.2	36.4	39.2	55	24.4	4	8	248	0.00	29.946 
09:50	39.5	35.2	39.5	53	23.8	6	11	270	0.00	29.946 
09:55	39.6	36.0	39.6	52	23.4	5	10	270	0.00	29.946 
10:00	40.2	40.2	40.2	53	24.5	3	9	248	0.00	29.940 
10:05	40.5	37.1	40.5	52	24.3	5	13	248	0.00	29.940 
10:10	40.8	36.7	40.8	52	24.6	6	10	248	0.00	29.940 
10:15	41.1	38.6	41.1	52	24.8	4	11	248	0.00	29.939 
10:20	41.3	38.0	41.3	50	24.1	5	12	248	0.00	29.939 
10:25	41.8	39.4	41.8	51	25.0	4	12	248	0.00	29.939 
10:30	42.1	39.7	42.1	50	24.8	4	10	270	0.00	29.939 
10:35	42.1	38.3	42.1	49	24.3	6	13	248	0.00	29.939 
10:40	42.6	40.3	42.6	49	24.8	4	10	248	0.00	29.939 
10:45	43.2	41.0	43.2	48	24.9	4	12	248	0.00	29.937 
10:50	43.3	41.1	43.3	47	24.4	4	10	270	0.00	29.937 
10:55	43.6	40.7	43.6	47	24.7	5	12	270	0.00	29.937 
11:00	44.1	40.6	44.1	45	24.1	6	14	270	0.00	29.937 
11:05	44.3	41.5	44.3	45	24.3	5	12	270	0.00	29.937 
11:10	44.9	43.0	44.9	45	24.9	4	10	248	0.00	29.937 
11:15	45.7	45.7	45.7	45	25.6	3	7	248	0.00	29.934 
11:20	46.0	44.2	46.0	43	24.8	4	10	270	0.00	29.934 
11:25	46.4	44.7	46.4	43	25.1	4	10	270	0.00	29.934 
11:30	46.5	44.1	46.5	41	24.1	5	15	270	0.00	29.939 
11:35	46.2	42.6	46.2	39	22.6	7	19	270	0.00	29.939 
11:40	45.5	41.3	45.5	42	23.8	8	15	248	0.00	29.939 
11:45	46.0	43.5	46.0	43	24.8	5	15	270	0.00	29.935 
11:50	46.7	45.1	46.7	42	24.8	4	9	270	0.00	29.935 
11:55	47.0	45.4	47.0	41	24.5	4	12	270	0.00	29.935 
12:00	46.5	42.5	46.5	40	23.5	8	18	248	0.00	29.932 
12:05	46.7	43.7	46.7	40	23.7	6	14	270	0.00	29.932 
12:10	47.3	45.0	47.3	41	24.8	5	12	270	0.00	29.932 
12:15	47.3	43.9	47.3	38	23.0	7	14	270	0.00	29.932 
12:20	47.9	46.4	47.9	39	24.1	4	13	270	0.00	29.932 
12:25	47.9	44.7	47.9	39	24.1	7	16	248	0.00	29.932 
12:30	48.2	45.5	48.2	39	24.4	6	12	270	0.00	29.935 
12:35	48.6	46.6	48.6	41	26.0	5	13	270	0.00	29.935 
12:40	48.3	45.6	48.3	39	24.5	6	15	270	0.00	29.935 
12:45	47.6	45.4	47.6	39	23.9	5	11	270	0.00	29.934 
12:50	47.9	46.4	47.9	41	25.3	4	7	270	0.00	29.934 
12:55	48.0	44.8	48.0	40	24.8	7	16	270	0.00	29.934 
13:00	47.7	44.0	47.7	40	24.6	8	23	270	0.00	29.927 
13:05	47.7	44.4	47.7	40	24.6	7	14	270	0.00	29.927 
13:10	47.9	44.7	47.9	39	24.1	7	18	270	0.00	29.927 
13:15	48.6	46.0	48.6	39	24.8	6	14	270	0.00	29.921 
13:20	48.6	45.5	48.6	38	24.2	7	18	270	0.00	29.921 
13:25	48.3	45.1	48.3	38	23.9	7	15	248	0.00	29.921 
13:30	48.5	46.5	48.5	39	24.7	5	15	270	0.00	29.916 
13:35	48.9	46.9	48.9	37	23.8	5	12	270	0.00	29.916 
13:40	49.2	47.3	49.2	38	24.7	5	19	270	0.00	29.916 
13:45	49.4	47.0	49.4	36	23.6	6	17	270	0.00	29.906 
13:50	48.9	45.4	48.9	38	24.4	8	21	270	0.00	29.906 
13:55	49.6	47.7	49.6	33	21.7	5	11	270	0.00	29.906 
14:00	49.5	47.1	49.5	33	21.6	6	18	270	0.00	29.902 
14:05	49.5	47.6	49.5	34	22.3	5	11	270	0.00	29.902 
14:10	49.8	49.8	49.8	35	23.3	3	7	270	0.00	29.902 
14:15	50.1	50.1	50.1	31	20.7	5	12	270	0.00	29.901 
14:20	49.4	47.0	49.4	31	20.0	6	14	270	0.00	29.901 
14:25	49.5	47.6	49.5	34	22.3	5	12	270	0.00	29.901 
14:30	49.8	48.6	49.8	32	21.1	4	7	270	0.00	29.898 
14:35	50.2	50.2	50.2	31	20.7	4	12	270	0.00	29.898 
14:40	49.1	47.2	49.1	31	19.8	5	15	270	0.00	29.898 
14:45	48.9	47.6	48.9	29	18.1	4	9	270	0.00	29.904 
14:50	48.9	46.9	48.9	29	18.1	5	16	270	0.00	29.904 
14:55	49.1	46.6	49.1	29	18.2	6	18	270	0.00	29.904 
15:00	49.5	48.3	49.5	28	17.8	4	10	270	0.00	29.906 
15:05	49.8	48.0	49.8	28	18.0	5	11	270	0.00	29.906 
15:10	48.9	46.4	48.9	28	17.2	6	14	270	0.00	29.906 
15:15	49.2	47.3	49.2	28	17.5	5	12	270	0.00	29.908 
15:20	49.1	47.2	49.1	28	17.4	5	10	270	0.00	29.908 
15:25	48.5	47.1	48.5	30	18.5	4	10	270	0.00	29.908 
15:30	47.9	46.4	47.9	31	18.7	4	10	270	0.00	29.913 
15:35	47.3	45.8	47.3	33	19.7	4	9	270	0.00	29.913 
15:40	45.8	42.7	45.8	40	22.9	6	21	270	0.00	29.913 
15:45	44.9	41.6	44.9	44	24.3	6	21	270	0.00	29.929 
15:50	44.2	42.2	44.2	48	25.8	4	10	338	0.00	29.929 
15:55	43.6	43.6	43.6	50	26.2	3	7	315	0.00	29.929 
16:00	43.6	43.6	43.6	51	26.7	3	7	315	0.00	29.940 
16:05	43.9	43.9	43.9	52	27.4	3	9	270	0.00	29.940 
16:10	44.5	42.5	44.5	52	28.0	4	9	270	0.00	29.940 
16:15	44.6	44.6	44.6	51	27.6	3	7	338	0.00	29.946 
16:20	44.3	44.3	44.3	52	27.8	3	7	292	0.00	29.946 
16:25	44.1	42.1	44.1	50	26.7	4	11	270	0.00	29.946 
16:30	43.2	41.0	43.2	51	26.3	4	10	292	0.00	29.961 
16:35	42.3	40.0	42.3	53	26.4	4	12	338	0.00	29.961 
16:40	41.8	41.8	41.8	55	26.8	2	6	292	0.00	29.961 
16:45	41.3	41.3	41.3	56	26.8	2	7	315	0.00	29.975 
16:50	41.1	41.1	41.1	56	26.6	3	7	338	0.00	29.975 
16:55	40.6	40.6	40.6	58	27.0	3	11	315	0.00	29.975 
17:00	40.2	40.2	40.2	58	26.6	3	7	292	0.00	29.987 
17:05	39.8	39.8	39.8	59	26.7	2	6	338	0.00	29.987 
17:10	39.6	39.6	39.6	60	26.9	2	6	292	0.00	29.987 
17:15	39.5	39.5	39.5	61	27.2	2	4	292	0.00	30.001 
17:20	39.2	39.2	39.2	61	26.9	3	11	292	0.00	30.001 
17:25	38.6	38.6	38.6	63	27.1	3	9	315	0.00	30.001 
17:30	38.3	38.3	38.3	63	26.8	3	6	338	0.00	30.012 
17:35	37.9	37.9	37.9	64	26.8	3	9	315	0.00	30.012 
17:40	37.6	37.6	37.6	64	26.5	2	7	315	0.00	30.012 
17:45	37.3	37.3	37.3	65	26.6	2	5	292	0.00	30.021 
17:50	37.0	37.0	37.0	65	26.3	2	6	270	0.00	30.021 
17:55	36.9	36.9	36.9	66	26.6	2	5	315	0.00	30.021 
18:00	36.8	36.8	36.8	66	26.5	2	5	292	0.00	30.028 
18:05	36.6	36.6	36.6	66	26.3	2	6	270	0.00	30.028 
18:10	36.5	36.5	36.5	66	26.2	2	5	292	0.00	30.028 
18:15	36.2	36.2	36.2	66	26.0	2	5	315	0.00	30.045 
18:20	36.0	36.0	36.0	65	25.4	2	5	315	0.00	30.045 
18:25	35.9	35.9	35.9	65	25.3	2	5	292	0.00	30.045 
18:30	35.6	35.6	35.6	62	23.9	2	7	338	0.00	30.053 
18:35	35.5	35.5	35.5	57	21.8	3	6	292	0.00	30.053 
18:40	35.0	35.0	35.0	55	20.5	2	5	338	0.00	30.053 
18:45	34.7	34.7	34.7	54	19.8	1	4	292	0.00	30.064 
18:50	34.6	34.6	34.6	53	19.2	2	6	315	0.00	30.064 
18:55	34.4	34.4	34.4	54	19.5	2	5	292	0.00	30.064 
19:00	34.1	34.1	34.1	54	19.2	2	6	292	0.00	30.078 
19:05	34.0	34.0	34.0	55	19.6	1	5	338	0.00	30.078 
19:10	33.8	33.8	33.8	55	19.4	2	5	315	0.00	30.078 
19:15	33.7	33.7	33.7	56	19.7	2	5	270	0.00	30.085 
19:20	33.5	33.5	33.5	57	19.9	2	6	338	0.00	30.085 
19:25	33.2	33.2	33.2	57	19.6	1	3	292	0.00	30.085 
19:30	32.9	32.9	32.9	57	19.4	1	3	292	0.00	30.095 
19:35	32.8	32.8	32.8	57	19.3	1	4	0	0.00	30.095 
19:40	32.7	32.7	32.7	57	19.2	1	3	0	0.00	30.095 
19:45	32.5	32.5	32.5	57	19.0	1	3	315	0.00	30.106 
19:50	32.4	32.4	32.4	58	19.3	1	4	270	0.00	30.106 
19:55	32.1	32.1	32.1	58	19.0	0	2	338	0.00	30.106 
20:00	31.9	31.9	31.9	58	18.8	1	3	315	0.00	30.110 
20:05	31.6	31.6	31.6	58	18.5	1	3	0	0.00	30.110 
20:10	31.6	31.6	31.6	59	18.9	1	2	292	0.00	30.110 
20:15	31.5	31.5	31.5	58	18.4	1	4	270	0.00	30.107 
20:20	31.2	31.2	31.2	58	18.2	1	2	292	0.00	30.107 
20:25	31.0	31.0	31.0	59	18.4	1	3	292	0.00	30.107 
20:30	30.9	30.9	30.9	58	17.9	0	2	315	0.00	30.107 
20:35	30.7	30.7	30.7	59	18.1	0	3	270	0.00	30.107 
20:40	30.6	30.6	30.6	59	18.0	1	3	292	0.00	30.107 
20:45	30.4	30.4	30.4	58	17.4	0	2	270	0.00	30.115 
20:50	30.3	30.3	30.3	59	17.7	0	1	270	0.00	30.115 
20:55	30.1	30.1	30.1	59	17.5	0	2	270	0.00	30.115 
21:00	30.0	30.0	30.0	59	17.4	0	2	270	0.00	30.115 
21:05	30.0	30.0	30.0	60	17.8	0	2	292	0.00	30.115 
21:10	29.7	29.7	29.7	60	17.5	0	1	292	0.00	30.115 
21:15	29.5	29.5	29.5	60	17.3	1	4	292	0.00	30.120 
21:20	29.5	29.5	29.5	60	17.3	0	2	292	0.00	30.120 
21:25	29.5	29.5	29.5	60	17.3	1	4	270	0.00	30.120 
21:30	29.4	29.4	29.4	60	17.3	1	2	248	0.00	30.132 
21:35	29.4	29.4	29.4	60	17.3	1	4	248	0.00	30.132 
21:40	29.3	29.3	29.3	61	17.5	1	3	270	0.00	30.132 
21:45	29.1	29.1	29.1	61	17.4	1	3	248	0.00	30.138 
21:50	29.1	29.1	29.1	61	17.4	1	2	248	0.00	30.138 
21:55	29.1	29.1	29.1	62	17.7	0	2	270	0.00	30.138 
22:00	29.0	29.0	29.0	62	17.6	0	1	270	0.00	30.150 
22:05	28.7	28.7	28.7	63	17.7	0	1	270	0.00	30.150 
22:10	28.5	28.5	28.5	62	17.2	0	1	270	0.00	30.150 
22:15	28.5	28.5	28.5	62	17.2	0	2	315	0.00	30.148 
22:20	28.4	28.4	28.4	62	17.1	0	2	315	0.00	30.148 
22:25	28.2	28.2	28.2	63	17.2	0	2	315	0.00	30.148 
22:30	28.2	28.2	28.2	62	16.9	0	3	315	0.00	30.154 
22:35	28.2	28.2	28.2	62	16.9	1	3	248	0.00	30.154 
22:40	28.2	28.2	28.2	63	17.2	1	2	248	0.00	30.154 
22:45	28.1	28.1	28.1	63	17.2	0	2	248	0.00	30.165 
22:50	28.1	28.1	28.1	64	17.5	1	2	270	0.00	30.165 
22:55	27.9	27.9	27.9	64	17.3	0	1	270	0.00	30.165 
23:00	27.8	27.8	27.8	65	17.6	0	4	248	0.00	30.172 
23:05	27.8	27.8	27.8	65	17.6	0	1	248	0.00	30.172 
23:10	27.6	27.6	27.6	65	17.4	0	3	270	0.00	30.172 
23:15	27.6	27.6	27.6	65	17.4	0	2	270	0.00	30.176 
23:20	27.6	27.6	27.6	65	17.4	1	3	270	0.00	30.176 
23:25	27.6	27.6	27.6	65	17.4	1	3	270	0.00	30.176 
23:30	27.5	27.5	27.5	64	16.9	1	3	248	0.00	30.179 
23:35	27.3	27.3	27.3	65	17.1	1	2	248	0.00	30.179 
23:40	27.2	27.2	27.2	65	17.0	0	2	338	0.00	30.179 
23:45	27.2	27.2	27.2	65	17.0	0	1	338	0.00	30.184 
23:50	27.0	27.0	27.0	65	16.8	0	2	338	0.00	30.184 
23:55	26.9	26.9	26.9	65	16.7	0	2	270	0.00	30.184 

CoCoRaHS
IN-AL-39
A2 Web Hosting
Creative Commons License
GoDaddy
Look for:

loaded 2017-10-19 12:27:06 • last modified 2010-11-18 10:43:29
Privacy PolicyDisclaimer
• wx.awcolley.com is powered by PmWiki v.2002016 •
• all content (unless otherwise noted) © 2017 A W Colley